Time;durP1;ratioP1;P1;durP2;ratioP2;P2;SDS_P1;SDS_P2;PMS_P1;PMS_P2;Temp;Humidity;BMP_temperature;BMP_pressure;BME280_temperature;BME280_humidity;BME280_pressure;Samples;Min_cycle;Max_cycle;Signal;HPM_P1;HPM_P2
2022/05/20 00:03:42;;;;;;;47.63;20.00;;;;;;;16.98;100.00;100255.13;12200052;19;20006;-80
2022/05/20 00:07:43;;;;;;;51.72;20.38;;;;;;;16.95;100.00;100254.84;12179301;19;20010;-79
2022/05/20 00:11:45;;;;;;;40.33;18.90;;;;;;;16.95;100.00;100249.28;12193609;19;20632;-79
2022/05/20 00:15:47;;;;;;;41.92;17.55;;;;;;;16.95;100.00;100243.72;12189016;19;20101;-81
2022/05/20 00:19:49;;;;;;;36.10;17.70;;;;;;;16.94;100.00;100236.50;12184381;19;20014;-79
2022/05/20 00:23:50;;;;;;;38.65;19.23;;;;;;;16.93;100.00;100245.97;12196732;19;20034;-80
2022/05/20 00:27:52;;;;;;;44.47;19.95;;;;;;;16.92;100.00;100233.97;12186640;19;20011;-79
2022/05/20 00:31:54;;;;;;;46.40;19.57;;;;;;;16.98;100.00;100243.16;12212396;19;20639;-77
2022/05/20 00:35:56;;;;;;;44.13;19.55;;;;;;;17.02;100.00;100238.69;12211969;19;20030;-79
2022/05/20 00:39:58;;;;;;;52.17;20.00;;;;;;;17.01;100.00;100248.16;12185370;19;20053;-79
2022/05/20 00:43:59;;;;;;;47.88;20.00;;;;;;;16.99;100.00;100253.19;12210325;19;20370;-81
2022/05/20 00:48:01;;;;;;;44.50;19.75;;;;;;;17.00;100.00;100269.59;12201625;19;20373;-81
2022/05/20 00:52:05;;;;;;;41.50;19.70;;;;;;;16.97;100.00;100258.19;12175689;19;20013;-79
2022/05/20 00:56:11;;;;;;;37.25;17.35;;;;;;;17.03;100.00;100254.28;12208408;19;20010;-79
2022/05/20 01:00:18;;;;;;;34.03;16.75;;;;;;;17.05;100.00;100263.19;12208765;19;20032;-79
2022/05/20 01:04:21;;;;;;;33.03;16.98;;;;;;;17.06;100.00;100253.72;12191672;19;20520;-79
2022/05/20 01:08:29;;;;;;;37.42;17.40;;;;;;;17.11;100.00;100245.34;12209012;19;20086;-81
2022/05/20 01:12:31;;;;;;;38.13;16.75;;;;;;;17.13;100.00;100270.13;12205252;19;20006;-79
2022/05/20 01:16:33;;;;;;;32.95;16.98;;;;;;;17.09;100.00;100258.72;12186191;19;20006;-81
2022/05/20 01:20:38;;;;;;;37.30;17.48;;;;;;;17.10;100.00;100243.66;12206680;19;20011;-80
2022/05/20 01:24:40;;;;;;;38.08;17.27;;;;;;;17.14;100.00;100246.75;12213070;19;20010;-78
2022/05/20 01:28:41;;;;;;;37.85;18.67;;;;;;;17.14;100.00;100264.28;12184927;19;20010;-78
2022/05/20 01:32:43;;;;;;;35.50;19.08;;;;;;;17.16;100.00;100264.81;12210616;19;20010;-79
2022/05/20 01:36:45;;;;;;;34.35;18.45;;;;;;;17.17;100.00;100276.81;12208901;19;20777;-80
2022/05/20 01:40:53;;;;;;;36.55;18.95;;;;;;;17.21;100.00;100272.34;12182434;19;20810;-78
2022/05/20 01:45:01;;;;;;;32.30;18.83;;;;;;;17.21;100.00;100277.91;12203677;19;20045;-78
2022/05/20 01:49:15;;;;;;;45.33;19.42;;;;;;;17.19;100.00;100281.00;12182558;19;20011;-79
2022/05/20 01:53:26;;;;;;;37.78;21.45;;;;;;;17.19;100.00;100311.63;12211795;19;20357;-80
2022/05/20 01:57:39;;;;;;;43.67;21.13;;;;;;;17.21;100.00;100337.22;12198108;19;20026;-78
2022/05/20 02:01:48;;;;;;;42.92;18.90;;;;;;;17.20;100.00;100337.50;12190185;19;20062;-81
2022/05/20 02:06:05;;;;;;;41.83;20.52;;;;;;;17.22;100.00;100282.34;12207663;19;20044;-82
2022/05/20 02:10:21;;;;;;;54.53;22.73;;;;;;;17.20;100.00;100178.78;12189244;19;20513;-80
2022/05/20 02:14:37;;;;;;;53.85;24.25;;;;;;;17.01;100.00;100226.75;12199208;19;20033;-80
2022/05/20 02:18:49;;;;;;;61.50;27.40;;;;;;;16.92;100.00;100219.22;12203857;19;20464;-81
2022/05/20 02:23:00;;;;;;;68.00;27.48;;;;;;;16.95;100.00;100229.78;12188372;19;20085;-79
2022/05/20 02:27:05;;;;;;;74.30;29.58;;;;;;;16.95;100.00;100216.69;12197259;19;20031;-81
2022/05/20 02:31:13;;;;;;;73.35;28.60;;;;;;;17.01;100.00;100206.41;12183678;19;20457;-79
2022/05/20 02:35:15;;;;;;;69.30;28.88;;;;;;;17.00;100.00;100207.53;12205447;19;20043;-79
2022/05/20 02:39:17;;;;;;;75.60;28.73;;;;;;;17.00;100.00;100193.59;12209778;19;20074;-80
2022/05/20 02:43:20;;;;;;;79.60;29.02;;;;;;;17.00;100.00;100202.78;12180252;19;20011;-81
2022/05/20 02:47:21;;;;;;;78.45;28.88;;;;;;;17.06;100.00;100195.25;12208365;19;20003;-79
2022/05/20 02:51:23;;;;;;;69.40;28.33;;;;;;;17.05;100.00;100197.22;12210037;19;20003;-79
2022/05/20 02:55:25;;;;;;;70.13;27.98;;;;;;;17.07;100.00;100202.47;12172613;19;20014;-81
2022/05/20 03:08:07;;;;;;;80.47;29.67;;;;;;;17.09;100.00;100222.53;12207861;19;20089;-81
2022/05/20 03:12:10;;;;;;;71.32;29.38;;;;;;;17.10;100.00;100229.75;12201257;19;20010;-81
2022/05/20 03:16:12;;;;;;;76.95;29.42;;;;;;;17.11;100.00;100220.31;12181887;19;20036;-80
2022/05/20 03:20:14;;;;;;;85.32;31.45;;;;;;;17.14;100.00;100214.16;12199453;19;20098;-81
2022/05/20 03:24:16;;;;;;;92.53;33.83;;;;;;;17.11;100.00;100237.00;12204533;19;20031;-82
2022/05/20 03:28:17;;;;;;;86.75;31.98;;;;;;;17.05;100.00;100233.41;12185255;19;20054;-81
2022/05/20 03:32:19;;;;;;;84.60;34.15;;;;;;;16.97;100.00;100220.06;12201403;19;20031;-81
2022/05/20 03:36:21;;;;;;;88.95;34.83;;;;;;;16.93;100.00;100226.47;12209531;19;20015;-81
2022/05/20 03:40:23;;;;;;;89.28;34.22;;;;;;;16.91;100.00;100228.69;12169184;19;20027;-82
2022/05/20 03:44:25;;;;;;;79.22;32.35;;;;;;;16.89;100.00;100225.34;12202634;19;20014;-80
2022/05/20 03:48:28;;;;;;;80.40;31.60;;;;;;;16.89;100.00;100220.63;12197607;19;20428;-80
2022/05/20 03:52:30;;;;;;;79.25;31.27;;;;;;;16.84;100.00;100217.88;12185409;19;20763;-79
2022/05/20 03:56:32;;;;;;;81.78;30.25;;;;;;;16.86;100.00;100215.63;12198078;19;20002;-82
2022/05/20 04:01:56;;;;;;;83.15;30.10;;;;;;;16.87;100.00;100208.94;12204664;19;20047;-84
2022/05/20 04:04:55;;;;;;;62.15;25.70;;;;;;;16.92;100.00;100200.56;12195945;19;20034;-79
2022/05/20 04:08:57;;;;;;;47.35;22.92;;;;;;;16.95;100.00;100196.38;12214071;19;20014;-80
2022/05/20 04:12:59;;;;;;;46.72;20.77;;;;;;;16.94;100.00;100197.50;12197347;19;20414;-83
2022/05/20 04:17:04;;;;;;;35.60;17.85;;;;;;;16.98;100.00;100177.16;12209709;19;20816;-79
2022/05/20 04:21:05;;;;;;;35.25;16.85;;;;;;;17.01;100.00;100181.34;12213066;19;20046;-83
2022/05/20 04:25:12;;;;;;;29.70;14.35;;;;;;;16.96;100.00;100187.78;12190250;19;20099;-82
2022/05/20 04:29:14;;;;;;;28.95;14.93;;;;;;;16.99;100.00;100178.03;12217197;19;20186;-82
2022/05/20 04:33:15;;;;;;;24.92;14.45;;;;;;;17.01;100.00;100189.69;12206787;19;20023;-82
2022/05/20 04:37:17;;;;;;;28.48;14.90;;;;;;;17.03;100.00;100182.72;12193673;19;20034;-82
2022/05/20 04:50:03;;;;;;;24.60;14.57;;;;;;;17.15;100.00;100201.91;12201665;19;20018;-82
2022/05/20 04:58:26;;;;;;;42.38;16.77;;;;;;;17.13;100.00;100331.38;12188915;19;20066;-82
2022/05/20 05:02:28;;;;;;;43.53;20.50;;;;;;;17.12;100.00;100330.56;12216387;19;20203;-88
2022/05/20 05:06:30;;;;;;;50.27;23.17;;;;;;;17.08;100.00;100315.53;12214883;19;20007;-82
2022/05/20 05:10:32;;;;;;;44.15;23.50;;;;;;;17.08;100.00;100293.25;12187008;19;20034;-83
2022/05/20 05:14:40;;;;;;;48.45;26.33;;;;;;;17.15;100.00;100288.22;12220374;19;20506;-82
2022/05/20 05:18:41;;;;;;;45.75;25.08;;;;;;;17.17;100.00;100258.16;12217876;19;20018;-81
2022/05/20 05:22:43;;;;;;;46.35;24.85;;;;;;;17.01;100.00;100232.31;12187405;19;20026;-79
2022/05/20 05:26:45;;;;;;;45.08;24.23;;;;;;;17.08;100.00;100226.44;12212021;19;20089;-79
2022/05/20 05:30:49;;;;;;;46.38;24.58;;;;;;;17.04;100.00;100215.03;12201378;19;20461;-79
2022/05/20 05:34:51;;;;;;;43.17;24.75;;;;;;;17.03;100.00;100196.66;12212563;19;20014;-80
2022/05/20 05:38:53;;;;;;;39.17;23.50;;;;;;;17.11;100.00;100202.75;12207913;19;20765;-80
2022/05/20 05:42:55;;;;;;;38.10;23.88;;;;;;;17.15;100.00;100210.25;12161438;19;20689;-80
2022/05/20 05:46:57;;;;;;;42.67;23.25;;;;;;;17.22;100.00;100199.66;12206018;19;20010;-79
2022/05/20 05:51:01;;;;;;;32.63;21.73;;;;;;;17.28;100.00;100187.38;12206364;19;20013;-79
2022/05/20 05:55:03;;;;;;;31.77;19.90;;;;;;;17.47;100.00;100186.72;12181181;19;20027;-79
2022/05/20 05:59:05;;;;;;;34.22;20.52;;;;;;;17.62;100.00;100188.59;12191572;19;20097;-80
2022/05/20 06:03:07;;;;;;;30.83;19.83;;;;;;;17.70;100.00;100183.25;12208560;19;20634;-79
2022/05/20 06:07:09;;;;;;;37.85;21.00;;;;;;;17.76;100.00;100192.41;12177654;19;20023;-79
2022/05/20 06:11:11;;;;;;;34.67;21.92;;;;;;;17.81;100.00;100183.22;12204095;19;20010;-79
2022/05/20 06:15:17;;;;;;;36.30;22.13;;;;;;;18.07;100.00;100190.28;12202971;19;20035;-80
2022/05/20 06:19:19;;;;;;;33.28;22.20;;;;;;;18.26;100.00;100190.38;12179675;19;20006;-80
2022/05/20 06:23:23;;;;;;;31.75;21.80;;;;;;;18.37;100.00;100191.13;12198689;19;20559;-79
2022/05/20 06:27:25;;;;;;;30.70;20.10;;;;;;;18.42;100.00;100199.47;12198518;19;20010;-80
2022/05/20 06:31:27;;;;;;;30.15;19.58;;;;;;;18.39;100.00;100194.47;12180197;19;20014;-79
2022/05/20 06:39:50;;;;;;;24.52;17.00;;;;;;;18.63;100.00;100180.56;12170138;19;20006;-82
2022/05/20 06:43:51;;;;;;;29.70;17.70;;;;;;;18.73;100.00;100172.13;12202882;19;20014;-80
2022/05/20 06:47:55;;;;;;;21.77;14.10;;;;;;;18.84;100.00;100189.59;12204214;19;20292;-82
2022/05/20 06:51:59;;;;;;;18.63;13.07;;;;;;;19.09;100.00;100194.06;12187588;19;20027;-82
2022/05/20 06:56:22;;;;;;;19.95;12.88;;;;;;;19.32;100.00;100197.97;12200865;19;20017;-82
2022/05/20 07:00:24;;;;;;;18.52;12.30;;;;;;;19.58;100.00;100190.91;12202816;19;20571;-82
2022/05/20 07:04:30;;;;;;;17.30;12.13;;;;;;;19.84;100.00;100190.59;12176572;19;20007;-82
2022/05/20 07:08:32;;;;;;;18.35;11.80;;;;;;;20.24;100.00;100185.47;12204086;19;20009;-82
2022/05/20 07:12:39;;;;;;;17.08;10.45;;;;;;;20.57;100.00;100194.72;12209912;19;20424;-82
2022/05/20 07:16:40;;;;;;;15.17;10.37;;;;;;;20.83;100.00;100197.91;12184640;19;20521;-83
2022/05/20 07:20:42;;;;;;;10.73;8.30;;;;;;;21.09;100.00;100194.59;12201405;19;20679;-83
2022/05/20 07:24:44;;;;;;;12.20;8.00;;;;;;;21.29;100.00;100187.75;12209372;19;20022;-82
2022/05/20 07:28:46;;;;;;;13.87;9.00;;;;;;;21.46;100.00;100173.13;12180227;19;20010;-82
2022/05/20 07:32:48;;;;;;;11.48;7.72;;;;;;;21.88;100.00;100185.06;12201200;19;20023;-81
2022/05/20 07:36:49;;;;;;;12.43;7.73;;;;;;;22.21;100.00;100178.13;12179221;19;20074;-82
2022/05/20 07:40:55;;;;;;;14.80;7.27;;;;;;;22.55;100.00;100175.84;12206147;19;20410;-84
2022/05/20 07:44:56;;;;;;;9.88;7.35;;;;;;;22.78;100.00;100169.03;12210840;19;20006;-83
2022/05/20 07:48:58;;;;;;;10.33;6.80;;;;;;;22.84;100.00;100158.50;12180449;19;20007;-83
2022/05/20 07:57:21;;;;;;;11.35;8.35;;;;;;;23.14;100.00;100151.19;12211833;19;20422;-82
2022/05/20 08:01:27;;;;;;;14.85;6.97;;;;;;;23.06;100.00;100152.03;12183398;19;20479;-81
2022/05/20 08:05:30;;;;;;;8.05;6.28;;;;;;;23.20;100.00;100153.56;12201155;19;20022;-81
2022/05/20 08:09:32;;;;;;;10.85;7.25;;;;;;;23.25;100.00;100146.94;12220079;19;20026;-80
2022/05/20 08:13:34;;;;;;;9.40;6.17;;;;;;;23.37;100.00;100149.13;12195763;19;20024;-81
2022/05/20 08:17:40;;;;;;;10.33;6.13;;;;;;;23.58;100.00;100150.16;12215282;19;20013;-81
2022/05/20 08:21:41;;;;;;;13.10;6.70;;;;;;;23.65;100.00;100138.44;12219426;19;20294;-81
2022/05/20 08:25:43;;;;;;;9.57;6.03;;;;;;;23.59;100.00;100134.13;12185079;19;20118;-81
2022/05/20 08:29:46;;;;;;;10.63;6.25;;;;;;;23.74;100.00;100128.03;12205551;19;20030;-82
2022/05/20 08:33:50;;;;;;;10.30;6.10;;;;;;;23.97;100.00;100122.22;12198648;19;20014;-82
2022/05/20 08:37:54;;;;;;;11.93;6.55;;;;;;;24.30;100.00;100123.34;12211887;19;20010;-84
2022/05/20 08:41:57;;;;;;;9.85;6.32;;;;;;;24.54;100.00;100120.00;12216454;19;20097;-83
2022/05/20 08:45:59;;;;;;;15.13;6.78;;;;;;;24.69;100.00;100123.41;12185602;19;20020;-84
2022/05/20 08:50:06;;;;;;;15.25;6.40;;;;;;;24.72;100.00;100111.50;12214414;19;20113;-82
2022/05/20 08:54:09;;;;;;;10.48;6.43;;;;;;;24.96;100.00;100114.53;12223034;19;20104;-83
2022/05/20 08:58:18;;;;;;;9.13;6.50;;;;;;;25.34;100.00;100101.56;12195328;19;20015;-84
2022/05/20 09:02:20;;;;;;;10.52;6.80;;;;;;;25.48;100.00;100098.50;12218445;19;20006;-83
2022/05/20 09:06:25;;;;;;;11.32;6.28;;;;;;;25.70;97.22;100095.34;12217852;19;20368;-83
2022/05/20 09:10:31;;;;;;;11.98;6.78;;;;;;;26.11;94.41;100088.00;12180780;19;20352;-83
2022/05/20 09:19:06;;;;;;;13.35;7.00;;;;;;;27.27;80.88;100089.59;12188636;19;20117;-82
2022/05/20 09:23:12;;;;;;;11.48;5.65;;;;;;;27.63;80.81;100079.38;12215947;19;20010;-83
2022/05/20 09:27:29;;;;;;;12.10;6.72;;;;;;;27.69;76.52;100072.31;12219151;19;20003;-83
2022/05/20 09:31:43;;;;;;;13.88;5.63;;;;;;;27.83;70.01;100071.09;12198233;19;20094;-82
2022/05/20 09:35:52;;;;;;;15.90;6.10;;;;;;;28.03;73.91;100064.41;12219363;19;20007;-82
2022/05/20 09:39:55;;;;;;;7.63;5.00;;;;;;;28.13;71.33;100049.69;12187212;19;22324;-83
2022/05/20 09:43:59;;;;;;;9.93;4.47;;;;;;;28.41;63.13;100051.72;12222324;19;20011;-83
2022/05/20 09:48:01;;;;;;;9.40;4.57;;;;;;;28.76;62.36;100039.63;12207501;19;20382;-82
2022/05/20 09:52:16;;;;;;;10.52;5.45;;;;;;;28.74;58.48;100042.00;12193669;19;20031;-81
2022/05/20 09:56:29;;;;;;;15.32;5.20;;;;;;;28.53;60.61;100036.63;12213026;19;20074;-82
2022/05/20 10:00:32;;;;;;;12.23;5.53;;;;;;;28.21;62.76;100035.75;12206587;19;20630;-81
2022/05/20 10:04:50;;;;;;;11.43;6.28;;;;;;;28.17;60.02;100035.66;12186934;19;20023;-81
2022/05/20 10:13:36;;;;;;;11.25;5.95;;;;;;;28.62;61.64;100003.25;12187192;19;20011;-81
2022/05/20 10:17:59;;;;;;;10.07;5.95;;;;;;;28.82;61.00;99989.94;12209515;19;20007;-82
2022/05/20 10:22:10;;;;;;;15.88;5.97;;;;;;;28.92;60.34;99978.03;12191167;19;20024;-81
2022/05/20 10:26:35;;;;;;;9.38;6.10;;;;;;;28.94;58.38;99975.63;12208776;19;20032;-80
2022/05/20 10:35:15;;;;;;;10.90;5.60;;;;;;;29.33;57.25;99984.25;12188440;19;20002;-83
2022/05/20 10:39:48;;;;;;;11.82;6.65;;;;;;;29.43;56.82;99977.16;12207990;19;20011;-81
2022/05/20 10:48:58;;;;;;;9.95;5.88;;;;;;;29.68;53.59;99940.78;12204172;19;20082;-81
2022/05/20 10:53:21;;;;;;;10.30;6.60;;;;;;;29.88;50.59;99938.72;12186930;19;20007;-81
2022/05/20 10:57:50;;;;;;;14.30;6.07;;;;;;;30.13;53.29;99942.00;12190321;19;20031;-83
2022/05/20 11:02:13;;;;;;;21.10;6.38;;;;;;;30.07;49.64;99926.47;12185608;19;20394;-84
2022/05/20 11:06:35;;;;;;;15.88;6.22;;;;;;;30.29;49.31;99908.63;12207741;19;20011;-81
2022/05/20 11:11:13;;;;;;;12.82;6.90;;;;;;;30.46;48.62;99904.44;12179319;19;20034;-81
2022/05/20 11:15:45;;;;;;;9.00;5.75;;;;;;;30.54;48.44;99874.88;12204635;19;20007;-80
2022/05/20 11:20:05;;;;;;;11.43;6.47;;;;;;;31.02;47.67;99863.78;12180816;19;20019;-81
2022/05/20 11:24:17;;;;;;;14.85;6.80;;;;;;;31.35;47.33;99815.81;12199871;19;20003;-81
2022/05/20 11:28:44;;;;;;;9.43;6.38;;;;;;;30.88;47.59;99796.16;12178361;19;20006;-80
2022/05/20 11:33:21;;;;;;;9.63;6.05;;;;;;;30.35;49.19;99776.34;12210386;19;20007;-82
2022/05/20 11:37:48;;;;;;;9.98;5.93;;;;;;;30.06;49.48;99746.66;12178171;19;20010;-81
2022/05/20 11:42:15;;;;;;;12.05;6.63;;;;;;;29.96;49.82;99759.50;12207573;19;20010;-82
2022/05/20 11:46:47;;;;;;;9.18;6.38;;;;;;;30.54;48.55;99754.66;12182449;19;20007;-82
2022/05/20 11:51:02;;;;;;;;;;;;;;;30.76;48.06;99795.56;12209536;19;20014;-82
2022/05/20 11:55:23;;;;;;;10.00;5.95;;;;;;;31.61;44.43;99792.06;12192414;19;19915;-82
2022/05/20 11:59:27;;;;;;;8.07;6.13;;;;;;;32.11;45.53;99784.78;12205030;19;20003;-83
2022/05/20 12:07:58;;;;;;;15.95;7.55;;;;;;;33.41;41.21;99767.03;12190668;19;20014;-84
2022/05/20 12:12:15;;;;;;;13.60;7.45;;;;;;;33.74;39.83;99748.69;12219642;19;20010;-84
2022/05/20 12:16:17;;;;;;;12.13;6.47;;;;;;;33.98;38.75;99744.19;12189124;19;20038;-83
2022/05/20 12:24:53;;;;;;;15.68;7.93;;;;;;;34.33;37.48;99741.66;12194226;19;20325;-83
2022/05/20 12:28:54;;;;;;;21.23;7.60;;;;;;;34.57;36.85;99746.53;12210109;19;20006;-83
2022/05/20 12:32:56;;;;;;;14.05;6.68;;;;;;;34.93;35.97;99758.63;12212787;19;20583;-83
2022/05/20 12:36:58;;;;;;;20.15;8.07;;;;;;;35.68;34.60;99734.44;12191408;19;20034;-82
2022/05/20 12:41:11;;;;;;;13.27;7.05;;;;;;;35.96;34.79;99710.41;12208428;19;20099;-84
2022/05/20 12:45:14;;;;;;;10.57;6.20;;;;;;;36.56;34.32;99696.69;12220480;19;20021;-84
2022/05/20 12:49:20;;;;;;;10.13;6.95;;;;;;;36.57;31.99;99677.41;12190681;19;20046;-83
2022/05/20 12:53:28;;;;;;;8.82;6.50;;;;;;;37.12;33.21;99668.38;12215370;19;20007;-84
2022/05/20 12:57:33;;;;;;;10.40;5.70;;;;;;;37.32;32.37;99645.50;12216565;19;20018;-83
2022/05/20 13:01:38;;;;;;;13.68;6.32;;;;;;;37.49;32.56;99629.22;12191079;19;20071;-83
2022/05/20 13:05:51;;;;;;;8.85;6.20;;;;;;;37.82;31.54;99643.81;12216471;19;20007;-84
2022/05/20 13:09:57;;;;;;;6.20;5.55;;;;;;;37.98;29.79;99646.00;12195217;19;20468;-83
2022/05/20 13:13:59;;;;;;;9.43;5.82;;;;;;;37.23;30.61;99676.03;12222564;19;20085;-83
2022/05/20 13:18:05;;;;;;;18.48;6.45;;;;;;;35.63;32.70;99700.50;12210812;19;20014;-82
2022/05/20 13:22:14;;;;;;;9.45;5.75;;;;;;;34.20;34.97;99698.41;12192193;19;20044;-83
2022/05/20 13:26:23;;;;;;;9.40;5.75;;;;;;;33.33;35.44;99708.28;12206192;19;20018;-83
2022/05/20 13:30:30;;;;;;;10.25;6.88;;;;;;;33.12;35.04;99731.91;12212511;19;20047;-83
2022/05/20 13:34:31;;;;;;;11.77;6.35;;;;;;;32.49;36.55;99733.31;12186611;19;20461;-82
2022/05/20 13:38:39;;;;;;;9.85;5.72;;;;;;;32.07;38.29;99718.38;12202449;19;20103;-83
2022/05/20 13:42:48;;;;;;;10.38;6.13;;;;;;;31.83;38.38;99713.28;12212935;19;20018;-82
2022/05/20 13:51:41;;;;;;;10.80;5.28;;;;;;;31.30;38.47;99726.69;12208822;19;20077;-82
2022/05/20 13:55:44;;;;;;;10.68;4.93;;;;;;;30.62;39.36;99736.47;12175324;19;20086;-82
2022/05/20 13:59:50;;;;;;;15.25;4.65;;;;;;;30.05;40.86;99724.31;12211443;19;20066;-83
2022/05/20 14:03:59;;;;;;;10.32;5.40;;;;;;;29.55;43.18;99695.13;12182738;19;20500;-82
2022/05/20 14:08:03;;;;;;;17.92;6.00;;;;;;;28.83;47.60;99677.63;12221491;19;20462;-82
2022/05/20 14:12:16;;;;;;;13.52;6.40;;;;;;;28.06;51.52;99766.25;12221951;19;20027;-83
2022/05/20 14:16:39;;;;;;;17.65;6.70;;;;;;;27.17;56.70;99790.25;12185723;19;20114;-81
2022/05/20 14:20:45;;;;;;;19.65;7.05;;;;;;;26.50;60.62;99758.84;12204880;19;20007;-80
2022/05/20 14:25:22;;;;;;;18.70;8.63;;;;;;;25.92;67.06;99725.16;12209206;19;20014;-79
2022/05/20 14:29:29;;;;;;;13.05;8.35;;;;;;;25.54;70.75;99592.91;12215474;19;20018;-79
2022/05/20 14:33:36;;;;;;;11.82;7.07;;;;;;;25.48;72.33;99605.63;12216200;19;20027;-79
2022/05/20 14:37:38;;;;;;;12.02;8.23;;;;;;;25.81;73.18;99542.50;12205406;19;20401;-80
2022/05/20 14:41:42;;;;;;;;;;;;;;;26.11;78.73;99537.34;12215958;19;20082;-79
2022/05/20 14:45:51;;;;;;;11.07;6.82;;;;;;;26.91;73.81;99513.63;12215710;19;20610;-80
2022/05/20 14:50:16;;;;;;;10.95;6.55;;;;;;;26.98;72.26;99527.94;12208293;19;20875;-81
2022/05/20 14:54:17;;;;;;;9.75;6.10;;;;;;;26.86;71.82;99541.34;12238472;19;20643;-81
2022/05/20 14:58:25;;;;;;;13.20;6.60;;;;;;;27.08;71.09;99571.81;12187726;19;20007;-82
2022/05/20 15:02:27;;;;;;;11.50;5.85;;;;;;;27.38;69.92;99579.81;12203380;19;20456;-81
2022/05/20 15:06:35;;;;;;;11.10;5.93;;;;;;;27.57;68.29;99565.69;12207649;19;20031;-83
2022/05/20 15:10:42;;;;;;;11.20;5.70;;;;;;;27.69;66.49;99559.06;12183619;19;20002;-84
2022/05/20 15:14:47;;;;;;;11.00;5.97;;;;;;;27.48;66.32;99546.13;12159006;19;20010;-84
2022/05/20 15:18:49;;;;;;;11.13;5.60;;;;;;;27.38;67.94;99515.56;12176197;19;20002;-84
2022/05/20 15:22:51;;;;;;;11.40;5.75;;;;;;;27.23;70.05;99505.94;12210259;19;20034;-84
2022/05/20 15:26:54;;;;;;;11.55;7.00;;;;;;;27.11;72.35;99514.50;12201730;19;20010;-83
2022/05/20 15:34:51;;;;;;;9.05;6.00;;;;;;;27.33;72.20;99510.19;12175753;19;20041;-83
2022/05/20 15:35:18;;;;;;;8.75;5.47;;;;;;;27.71;68.23;99540.53;12201563;19;20018;-84
2022/05/20 15:40:03;;;;;;;8.70;5.20;;;;;;;28.13;65.57;99536.97;12199479;19;20007;-82
2022/05/20 15:44:25;;;;;;;11.15;5.35;;;;;;;28.19;63.06;99534.66;12194117;19;20015;-83
2022/05/20 15:48:41;;;;;;;8.68;5.00;;;;;;;28.28;62.30;99492.72;12199897;19;20070;-82
2022/05/20 15:52:55;;;;;;;14.77;5.45;;;;;;;27.99;60.57;99480.06;12188932;19;20006;-83
2022/05/20 15:57:03;;;;;;;10.52;5.45;;;;;;;27.98;59.89;99471.94;12217269;19;20006;-81
2022/05/20 16:01:05;;;;;;;;;;;;;;;28.02;59.12;99472.81;12183042;19;20014;-81
2022/05/20 16:05:18;;;;;;;8.73;4.60;;;;;;;28.28;57.08;99455.06;12201196;19;20317;-81
2022/05/20 16:09:27;;;;;;;22.60;6.50;;;;;;;28.60;53.25;99462.16;12209086;19;20017;-81
2022/05/20 16:13:30;;;;;;;12.38;3.83;;;;;;;28.90;51.19;99472.75;12189931;19;20035;-81
2022/05/20 16:17:32;;;;;;;9.57;3.85;;;;;;;28.91;49.63;99474.38;12204526;19;20011;-81
2022/05/20 16:21:35;;;;;;;11.98;3.72;;;;;;;28.70;46.52;99474.03;12210916;19;20032;-81
2022/05/20 16:25:37;;;;;;;9.13;3.55;;;;;;;28.59;45.79;99471.03;12195376;19;20010;-81
2022/05/20 16:29:38;;;;;;;10.85;3.78;;;;;;;28.38;44.80;99479.97;12206872;19;20070;-80
2022/05/20 16:33:43;;;;;;;9.55;3.40;;;;;;;28.23;45.21;99490.22;12224794;19;19998;-83
2022/05/20 16:37:48;;;;;;;8.38;2.97;;;;;;;28.01;43.87;99486.16;12197237;19;20045;-81
2022/05/20 16:41:49;;;;;;;9.10;3.33;;;;;;;27.91;44.06;99483.94;12215055;19;20030;-80
2022/05/20 16:45:52;;;;;;;8.32;2.90;;;;;;;27.71;44.35;99483.09;12190152;19;20011;-82
2022/05/20 16:49:54;;;;;;;8.38;3.33;;;;;;;27.68;43.94;99475.34;12214835;19;20022;-82
2022/05/20 16:53:58;;;;;;;10.80;3.28;;;;;;;27.65;43.69;99462.75;12208925;19;20014;-82
2022/05/20 17:02:38;;;;;;;12.80;3.38;;;;;;;27.40;44.18;99436.78;12211615;19;20011;-82
2022/05/20 17:06:41;;;;;;;11.07;3.13;;;;;;;27.20;44.18;99433.13;12211936;19;20037;-82
2022/05/20 17:11:21;;;;;;;8.65;3.47;;;;;;;26.94;45.24;99430.09;12184663;19;20548;-81
2022/05/20 17:15:46;;;;;;;14.07;3.38;;;;;;;26.63;45.40;99426.16;12208006;19;20003;-81
2022/05/20 17:20:10;;;;;;;8.82;3.42;;;;;;;26.52;46.13;99414.59;12194792;19;20019;-82
2022/05/20 17:24:22;;;;;;;10.45;3.80;;;;;;;26.47;46.32;99439.44;12194783;19;20023;-81
2022/05/20 17:28:26;;;;;;;8.63;3.70;;;;;;;26.39;46.72;99438.44;12186726;19;20015;-84
2022/05/20 17:32:33;;;;;;;6.45;2.90;;;;;;;26.33;46.89;99435.06;12208289;19;20031;-82
2022/05/20 17:36:37;;;;;;;11.30;3.75;;;;;;;26.22;47.13;99408.56;12206907;19;20023;-83
2022/05/20 17:40:43;;;;;;;7.68;3.80;;;;;;;26.23;47.72;99396.06;12179810;19;20421;-81
2022/05/20 17:44:55;;;;;;;12.15;3.38;;;;;;;26.20;47.62;99413.75;12211289;19;20003;-83
2022/05/20 17:49:00;;;;;;;11.82;3.60;;;;;;;26.12;48.09;99411.94;12206779;19;20769;-82
2022/05/20 17:53:07;;;;;;;10.05;3.58;;;;;;;26.05;48.04;99414.56;12213552;19;20401;-82
2022/05/20 17:57:10;;;;;;;10.57;3.55;;;;;;;25.91;48.49;99434.78;12211463;19;20017;-82
2022/05/20 18:01:16;;;;;;;10.40;3.53;;;;;;;25.77;49.37;99452.09;12189819;19;20019;-82
2022/05/20 18:05:18;;;;;;;8.20;3.40;;;;;;;25.57;50.48;99455.97;12207483;19;20018;-83
2022/05/20 18:09:21;;;;;;;9.45;4.07;;;;;;;25.44;50.81;99474.94;12218074;19;20013;-82
2022/05/20 18:13:25;;;;;;;7.45;3.97;;;;;;;25.25;51.56;99469.94;12196277;19;20010;-81
2022/05/20 18:17:32;;;;;;;9.88;3.70;;;;;;;25.18;52.65;99514.84;12218527;19;20007;-82
2022/05/20 18:21:34;;;;;;;10.45;3.72;;;;;;;24.85;54.06;99535.50;12210082;19;20863;-83
2022/05/20 18:25:36;;;;;;;7.82;3.88;;;;;;;24.62;54.16;99585.03;12193476;19;20046;-83
2022/05/20 18:29:43;;;;;;;9.98;3.45;;;;;;;24.52;53.77;99601.22;12214973;19;20018;-83
2022/05/20 18:33:50;;;;;;;7.90;3.33;;;;;;;24.60;53.54;99618.34;12212874;19;20369;-83
2022/05/20 18:42:28;;;;;;;5.75;1.95;;;;;;;24.38;58.59;99642.09;12213416;19;20015;-80
2022/05/20 18:46:31;;;;;;;5.13;2.13;;;;;;;24.01;61.19;99647.56;12193695;19;20006;-81
2022/05/20 18:50:33;;;;;;;59.35;4.55;;;;;;;23.53;71.47;99666.56;12212862;19;20006;-83
2022/05/20 18:54:34;;;;;;;49.50;7.30;;;;;;;20.88;95.68;99793.63;12210284;19;20093;-79
2022/05/20 18:58:36;;;;;;;12.05;5.68;;;;;;;19.66;100.00;99746.91;12180386;19;20749;-76
2022/05/20 19:02:38;;;;;;;11.47;6.60;;;;;;;19.13;100.00;99773.38;12203991;19;20006;-77
2022/05/20 19:06:40;;;;;;;13.65;6.32;;;;;;;18.92;100.00;99772.91;12194966;19;20006;-77
2022/05/20 19:10:42;;;;;;;22.60;8.95;;;;;;;18.68;100.00;99767.44;12189160;19;20010;-78
2022/05/20 19:14:44;;;;;;;15.07;7.17;;;;;;;18.54;100.00;99759.00;12215916;19;20338;-76
2022/05/20 19:18:45;;;;;;;26.60;11.60;;;;;;;18.49;100.00;99763.84;12206802;19;20066;-77
2022/05/20 19:22:47;;;;;;;16.77;9.63;;;;;;;18.45;100.00;99775.59;12195969;19;20011;-78
2022/05/20 19:26:49;;;;;;;28.67;12.23;;;;;;;18.41;100.00;99784.88;12211056;19;20003;-78
2022/05/20 19:30:51;;;;;;;27.15;12.15;;;;;;;18.42;100.00;99797.72;12190897;19;20030;-78
2022/05/20 19:34:52;;;;;;;27.83;10.90;;;;;;;18.42;100.00;99798.53;12214477;19;20014;-77
2022/05/20 19:38:54;;;;;;;24.98;10.68;;;;;;;18.35;100.00;99809.25;12213838;19;20027;-78
2022/05/20 19:42:57;;;;;;;29.20;12.57;;;;;;;18.30;100.00;99812.13;12188900;19;20010;-76
2022/05/20 19:46:59;;;;;;;27.10;11.88;;;;;;;18.27;100.00;99812.72;12206602;19;20070;-76
2022/05/20 19:51:01;;;;;;;27.85;12.32;;;;;;;18.22;100.00;99827.53;12206725;19;20066;-77